createdAt,value
2023-04-08T00:02:16.712Z,5.48
2023-04-08T00:05:19.698Z,5.48
2023-04-08T00:08:22.535Z,5.45
2023-04-08T00:11:25.399Z,5.45
2023-04-08T00:14:28.458Z,5.41
2023-04-08T00:17:31.835Z,5.41
2023-04-08T00:20:34.837Z,5.39
2023-04-08T00:23:37.679Z,5.39
2023-04-08T00:26:40.616Z,5.39
2023-04-08T00:29:43.483Z,5.47
2023-04-08T00:32:46.857Z,5.39
2023-04-08T00:35:49.834Z,5.37
2023-04-08T00:38:53.027Z,5.39
2023-04-08T00:41:57.612Z,5.40
2023-04-08T00:45:00.517Z,5.43
2023-04-08T00:48:04.915Z,5.42
2023-04-08T00:51:08.473Z,5.42
2023-04-08T00:54:11.397Z,5.47
2023-04-08T00:57:14.206Z,5.46
2023-04-08T01:00:17.152Z,5.48
2023-04-08T01:03:49.230Z,5.48
2023-04-08T01:06:52.752Z,5.47
2023-04-08T01:09:56.692Z,5.49
2023-04-08T01:13:04.544Z,5.47
2023-04-08T01:16:11.117Z,5.47
2023-04-08T01:19:27.259Z,5.53
2023-04-08T01:22:55.260Z,5.51
2023-04-08T01:25:58.713Z,5.49
2023-04-08T01:29:04.435Z,5.48
2023-04-08T01:32:08.699Z,5.49
2023-04-08T01:35:11.776Z,5.47
2023-04-08T01:38:18.281Z,5.45
2023-04-08T01:41:21.630Z,5.49
2023-04-08T01:44:26.498Z,5.50
2023-04-08T01:47:30.643Z,5.54
2023-04-08T01:50:34.430Z,5.50
2023-04-08T01:53:37.851Z,5.46
2023-04-08T01:56:42.476Z,5.45
2023-04-08T01:59:51.462Z,5.48
2023-04-08T02:02:55.749Z,5.44
2023-04-08T02:06:00.024Z,5.43
2023-04-08T02:09:02.972Z,5.36
2023-04-08T02:12:06.367Z,5.31
2023-04-08T02:15:10.067Z,5.29
2023-04-08T02:18:26.847Z,5.34
2023-04-08T02:21:43.340Z,5.34
2023-04-08T02:24:47.470Z,5.41
2023-04-08T02:27:51.982Z,5.43
2023-04-08T02:30:57.401Z,5.36
2023-04-08T02:34:00.881Z,5.33
2023-04-08T02:37:06.111Z,5.36
2023-04-08T02:40:31.602Z,5.29
2023-04-08T02:43:35.189Z,5.27
2023-04-08T02:46:40.926Z,5.27
2023-04-08T02:49:44.098Z,5.27
2023-04-08T02:52:46.670Z,5.25
2023-04-08T02:55:50.375Z,5.21
2023-04-08T02:58:53.105Z,5.24
2023-04-08T03:01:56.847Z,5.21
2023-04-08T03:04:59.763Z,5.18
2023-04-08T03:08:02.993Z,5.17
2023-04-08T03:11:06.325Z,5.24
2023-04-08T03:14:11.545Z,5.28
2023-04-08T03:17:14.212Z,5.21
2023-04-08T03:20:17.418Z,5.41
2023-04-08T03:23:19.986Z,5.36
2023-04-08T03:26:23.173Z,5.33
2023-04-08T03:29:25.706Z,5.30
2023-04-08T03:32:29.159Z,5.30
2023-04-08T03:35:32.900Z,5.29
2023-04-08T03:38:36.284Z,5.25
2023-04-08T03:41:38.832Z,5.23
2023-04-08T03:44:42.040Z,5.32
2023-04-08T03:47:44.747Z,5.27
2023-04-08T03:50:47.998Z,5.29
2023-04-08T03:53:50.617Z,5.33
2023-04-08T03:56:53.964Z,5.33
2023-04-08T03:59:56.710Z,5.23
2023-04-08T04:02:59.956Z,5.21
2023-04-08T04:06:02.797Z,5.29
2023-04-08T04:09:05.728Z,5.36
2023-04-08T04:12:08.650Z,5.30
2023-04-08T04:15:12.044Z,5.31
2023-04-08T04:18:14.824Z,5.29
2023-04-08T04:21:17.599Z,5.32
2023-04-08T04:24:20.432Z,5.38
2023-04-08T04:27:23.322Z,5.23
2023-04-08T04:30:27.201Z,5.23
2023-04-08T04:33:30.577Z,5.32
2023-04-08T04:36:33.444Z,5.26
2023-04-08T04:39:36.588Z,5.25
2023-04-08T04:42:39.478Z,5.29
2023-04-08T04:45:42.390Z,5.23
2023-04-08T04:48:45.492Z,5.18
2023-04-08T04:51:49.223Z,5.17
2023-04-08T04:54:52.045Z,5.25
2023-04-08T04:57:54.845Z,5.29
2023-04-08T05:00:58.109Z,5.37
2023-04-08T05:04:01.211Z,5.37
2023-04-08T05:07:04.036Z,5.50
2023-04-08T05:10:07.361Z,5.47
2023-04-08T05:13:10.217Z,5.46
2023-04-08T05:16:13.091Z,5.36
2023-04-08T05:19:16.327Z,5.36
2023-04-08T05:22:19.401Z,5.32
2023-04-08T05:25:22.224Z,5.33
2023-04-08T05:28:25.139Z,5.33
2023-04-08T05:31:28.399Z,5.43
2023-04-08T05:34:32.211Z,5.47
2023-04-08T05:37:35.140Z,5.45
2023-04-08T05:40:38.096Z,5.44
2023-04-08T05:43:41.352Z,5.41
2023-04-08T05:46:44.308Z,5.36
2023-04-08T05:49:47.237Z,5.49
2023-04-08T05:52:50.030Z,5.38
2023-04-08T05:55:52.882Z,5.36
2023-04-08T05:58:55.722Z,5.36
2023-04-08T06:01:58.653Z,5.42
2023-04-08T06:05:02.233Z,5.43
2023-04-08T06:08:07.684Z,5.47
2023-04-08T06:11:11.544Z,5.49
2023-04-08T06:14:14.429Z,5.52
2023-04-08T06:17:20.566Z,5.55
2023-04-08T06:20:23.172Z,5.58
2023-04-08T06:23:26.325Z,5.54
2023-04-08T06:26:28.847Z,5.56
2023-04-08T06:29:33.735Z,5.53
2023-04-08T06:32:36.317Z,5.56
2023-04-08T06:35:40.165Z,5.54
2023-04-08T06:38:42.744Z,5.52
2023-04-08T06:41:46.292Z,5.52
2023-04-08T06:44:50.204Z,5.53
2023-04-08T06:47:53.421Z,5.54
2023-04-08T06:51:01.459Z,5.55
2023-04-08T06:54:04.659Z,5.53
2023-04-08T06:57:07.219Z,5.50
2023-04-08T07:00:11.013Z,5.53
2023-04-08T07:03:13.823Z,5.57
2023-04-08T07:06:16.910Z,5.67
2023-04-08T07:09:19.370Z,5.62
2023-04-08T07:12:22.453Z,5.62
2023-04-08T07:15:25.028Z,5.67
2023-04-08T07:18:28.243Z,5.71
2023-04-08T07:21:31.798Z,5.70
2023-04-08T07:24:34.955Z,5.67
2023-04-08T07:27:37.745Z,5.71
2023-04-08T07:30:40.911Z,5.73
2023-04-08T07:33:44.825Z,5.70
2023-04-08T07:36:48.604Z,5.69
2023-04-08T07:39:51.355Z,5.72
2023-04-08T07:42:54.438Z,5.70
2023-04-08T07:46:02.816Z,5.77
2023-04-08T07:49:06.017Z,5.77
2023-04-08T07:52:09.446Z,5.81
2023-04-08T07:55:12.626Z,5.86
2023-04-08T07:58:15.257Z,5.89
2023-04-08T08:01:23.655Z,5.92
2023-04-08T08:04:26.815Z,5.95
2023-04-08T08:07:30.149Z,5.97
2023-04-08T08:10:33.060Z,6.02
2023-04-08T08:13:35.948Z,6.04
2023-04-08T08:16:39.481Z,6.13
2023-04-08T08:19:42.201Z,6.22
2023-04-08T08:22:56.818Z,6.26
2023-04-08T08:26:06.575Z,6.29
2023-04-08T08:29:09.703Z,6.31
2023-04-08T08:32:12.683Z,6.35
2023-04-08T08:35:15.645Z,6.39
2023-04-08T08:38:19.011Z,6.33
2023-04-08T08:41:23.385Z,6.35
2023-04-08T08:44:27.149Z,6.37
2023-04-08T08:47:31.147Z,6.39
2023-04-08T08:50:34.331Z,6.40
2023-04-08T08:53:37.832Z,6.40
2023-04-08T08:56:42.789Z,6.44
2023-04-08T08:59:49.064Z,6.42
2023-04-08T09:02:52.165Z,6.49
2023-04-08T09:05:56.673Z,6.46
2023-04-08T09:08:59.507Z,6.44
2023-04-08T09:12:06.288Z,6.43
2023-04-08T09:15:10.626Z,6.43
2023-04-08T09:18:22.672Z,6.46
2023-04-08T09:21:27.429Z,6.61
2023-04-08T09:24:31.897Z,6.67
2023-04-08T09:27:37.542Z,6.80
2023-04-08T09:30:40.390Z,6.81
2023-04-08T09:33:43.205Z,6.81
2023-04-08T09:36:46.438Z,6.94
2023-04-08T09:39:49.342Z,6.87
2023-04-08T09:42:54.582Z,6.85
2023-04-08T09:46:02.695Z,6.88
2023-04-08T09:49:13.800Z,6.96
2023-04-08T09:52:28.928Z,7.05
2023-04-08T09:55:37.418Z,7.04
2023-04-08T09:58:49.750Z,7.06
2023-04-08T10:01:54.397Z,7.10
2023-04-08T10:05:00.641Z,7.12
2023-04-08T10:08:04.232Z,7.18
2023-04-08T10:11:08.078Z,7.21
2023-04-08T10:14:11.639Z,7.54
2023-04-08T10:17:28.528Z,7.37
2023-04-08T10:20:34.281Z,7.32
2023-04-08T10:23:59.412Z,7.19
2023-04-08T10:27:04.490Z,7.13
2023-04-08T10:30:26.574Z,7.12
2023-04-08T10:33:29.564Z,7.18
2023-04-08T10:36:32.684Z,7.15
2023-04-08T10:39:38.677Z,7.20
2023-04-08T10:42:43.138Z,7.27
2023-04-08T10:45:51.467Z,7.31
2023-04-08T10:49:03.676Z,7.33
2023-04-08T10:52:09.487Z,7.37
2023-04-08T10:55:13.162Z,7.46
2023-04-08T10:58:17.052Z,7.48
2023-04-08T11:01:20.276Z,7.48
2023-04-08T11:04:23.771Z,7.42
2023-04-08T11:07:27.243Z,7.35
2023-04-08T11:10:30.261Z,7.32
2023-04-08T11:13:33.466Z,7.34
2023-04-08T11:16:38.424Z,7.42
2023-04-08T11:19:41.790Z,7.53
2023-04-08T11:22:45.237Z,7.56
2023-04-08T11:25:48.538Z,7.65
2023-04-08T11:28:52.293Z,7.75
2023-04-08T11:31:55.829Z,7.77
2023-04-08T11:35:02.534Z,7.82
2023-04-08T11:38:05.757Z,7.79
2023-04-08T11:41:08.392Z,7.69
2023-04-08T11:44:11.643Z,7.62
2023-04-08T11:47:14.395Z,7.53
2023-04-08T11:50:24.809Z,7.38
2023-04-08T11:53:27.344Z,7.34
2023-04-08T11:56:31.384Z,7.30
2023-04-08T11:59:33.800Z,7.33
2023-04-08T12:02:36.980Z,7.48
2023-04-08T12:05:39.963Z,7.57
2023-04-08T12:08:43.397Z,7.61
2023-04-08T12:11:46.748Z,7.61
2023-04-08T12:14:49.812Z,7.64
2023-04-08T12:17:52.644Z,7.67
2023-04-08T12:20:55.686Z,7.69
2023-04-08T12:23:58.485Z,7.67
2023-04-08T12:27:02.573Z,7.76
2023-04-08T12:30:05.906Z,7.83
2023-04-08T12:33:08.887Z,7.97
2023-04-08T12:36:13.737Z,8.06
2023-04-08T12:39:17.016Z,8.21
2023-04-08T12:42:19.812Z,8.48
2023-04-08T12:45:22.645Z,8.65
2023-04-08T12:48:25.501Z,8.63
2023-04-08T12:51:29.490Z,8.64
2023-04-08T12:54:32.594Z,8.68
2023-04-08T12:57:35.560Z,8.67
2023-04-08T13:00:38.552Z,8.69
2023-04-08T13:03:44.421Z,8.69
2023-04-08T13:06:50.039Z,8.75
2023-04-08T13:09:52.917Z,8.73
2023-04-08T13:12:55.761Z,8.63
2023-04-08T13:15:59.010Z,8.59
2023-04-08T13:19:02.101Z,8.48
2023-04-08T13:22:04.915Z,8.31
2023-04-08T13:25:08.612Z,8.22
2023-04-08T13:28:11.624Z,8.06
2023-04-08T13:31:14.452Z,8.03
2023-04-08T13:34:17.423Z,8.05
2023-04-08T13:37:20.261Z,8.09
2023-04-08T13:40:23.145Z,8.20
2023-04-08T13:43:25.916Z,8.27
2023-04-08T13:46:28.804Z,8.34
2023-04-08T13:49:31.704Z,8.39
2023-04-08T13:52:34.512Z,8.39
2023-04-08T13:55:37.334Z,8.41
2023-04-08T13:58:40.733Z,8.45
2023-04-08T14:01:43.457Z,8.43
2023-04-08T14:04:46.911Z,8.44
2023-04-08T14:07:49.592Z,8.47
2023-04-08T14:10:56.942Z,8.49
2023-04-08T14:13:59.907Z,8.44
2023-04-08T14:17:03.229Z,8.43
2023-04-08T14:20:06.615Z,8.47
2023-04-08T14:23:09.884Z,8.38
2023-04-08T14:26:12.361Z,8.26
2023-04-08T14:29:15.596Z,8.16
2023-04-08T14:32:18.216Z,8.02
2023-04-08T14:35:21.842Z,8.11
2023-04-08T14:38:24.603Z,8.06
2023-04-08T14:41:27.691Z,7.97
2023-04-08T14:44:30.166Z,7.89
2023-04-08T14:47:33.449Z,7.78
2023-04-08T14:50:36.379Z,7.74
2023-04-08T14:53:39.419Z,7.66
2023-04-08T14:56:41.857Z,7.55
2023-04-08T14:59:44.988Z,7.49
2023-04-08T15:02:47.636Z,7.48
2023-04-08T15:05:50.900Z,7.40
2023-04-08T15:08:53.718Z,7.40
2023-04-08T15:11:58.006Z,7.40
2023-04-08T15:15:00.499Z,7.42
2023-04-08T15:18:03.780Z,7.47
2023-04-08T15:21:06.387Z,7.53
2023-04-08T15:24:09.514Z,7.52
2023-04-08T15:27:12.045Z,7.54
2023-04-08T15:30:17.127Z,7.58
2023-04-08T15:33:20.102Z,7.61
2023-04-08T15:36:23.454Z,7.66
2023-04-08T15:39:26.295Z,7.64
2023-04-08T15:42:29.373Z,7.64
2023-04-08T15:45:31.856Z,7.64
2023-04-08T15:48:35.296Z,7.63
2023-04-08T15:51:37.903Z,7.59
2023-04-08T15:54:41.314Z,7.56
2023-04-08T15:57:43.868Z,7.53
2023-04-08T16:00:46.981Z,7.49
2023-04-08T16:03:49.903Z,7.48
2023-04-08T16:06:52.752Z,7.43
2023-04-08T16:09:55.828Z,7.38
2023-04-08T16:12:59.216Z,7.31
2023-04-08T16:16:02.314Z,7.24
2023-04-08T16:19:05.772Z,7.19
2023-04-08T16:22:08.742Z,7.19
2023-04-08T16:25:11.554Z,7.09
2023-04-08T16:28:14.545Z,7.18
2023-04-08T16:31:18.703Z,7.05
2023-04-08T16:34:22.556Z,6.97
2023-04-08T16:37:25.989Z,6.95
2023-04-08T16:40:33.029Z,6.95
2023-04-08T16:43:37.343Z,6.89
2023-04-08T16:46:40.600Z,6.80
2023-04-08T16:49:43.388Z,6.75
2023-04-08T16:52:49.548Z,6.76
2023-04-08T16:55:52.607Z,6.81
2023-04-08T16:58:55.591Z,6.76
2023-04-08T17:01:58.570Z,6.79
2023-04-08T17:05:01.569Z,6.80
2023-04-08T17:08:04.561Z,6.81
2023-04-08T17:11:13.206Z,6.81
2023-04-08T17:14:16.522Z,6.78
2023-04-08T17:17:19.367Z,6.77
2023-04-08T17:20:22.266Z,6.84
2023-04-08T17:23:25.258Z,6.80
2023-04-08T17:26:28.414Z,6.84
2023-04-08T17:29:31.660Z,6.81
2023-04-08T17:32:34.563Z,6.71
2023-04-08T17:35:37.526Z,6.73
2023-04-08T17:38:41.220Z,6.67
2023-04-08T17:41:45.974Z,6.64
2023-04-08T17:44:49.510Z,6.70
2023-04-08T17:47:53.940Z,6.60
2023-04-08T17:51:16.624Z,6.58
2023-04-08T17:54:19.461Z,6.59
2023-04-08T17:57:22.564Z,6.57
2023-04-08T18:00:26.628Z,6.57
2023-04-08T18:03:30.259Z,6.49
2023-04-08T18:06:32.949Z,6.43
2023-04-08T18:09:36.326Z,6.39
2023-04-08T18:12:38.963Z,6.48
2023-04-08T18:15:42.230Z,6.44
2023-04-08T18:18:45.223Z,6.54
2023-04-08T18:21:48.401Z,6.51
2023-04-08T18:24:50.961Z,6.45
2023-04-08T18:27:54.116Z,6.39
2023-04-08T18:30:56.721Z,6.36
2023-04-08T18:33:59.858Z,6.39
2023-04-08T18:37:02.462Z,6.39
2023-04-08T18:40:07.529Z,6.26
2023-04-08T18:43:12.718Z,6.35
2023-04-08T18:46:15.953Z,6.33
2023-04-08T18:49:18.860Z,6.18
2023-04-08T18:52:22.090Z,6.21
2023-04-08T18:55:25.028Z,6.20
2023-04-08T18:58:28.302Z,6.11
2023-04-08T19:01:32.621Z,6.16
2023-04-08T19:04:35.887Z,6.15
2023-04-08T19:07:38.807Z,6.18
2023-04-08T19:10:41.874Z,6.16
2023-04-08T19:13:44.581Z,6.19
2023-04-08T19:16:47.846Z,6.16
2023-04-08T19:19:50.373Z,6.18
2023-04-08T19:22:53.558Z,6.26
2023-04-08T19:25:56.234Z,6.16
2023-04-08T19:29:00.143Z,6.16
2023-04-08T19:32:04.238Z,6.14
2023-04-08T19:35:08.079Z,6.11
2023-04-08T19:38:12.049Z,6.10
2023-04-08T19:41:17.731Z,6.08
2023-04-08T19:44:20.289Z,6.03
2023-04-08T19:47:23.692Z,6.11
2023-04-08T19:50:26.290Z,6.06
2023-04-08T19:53:30.657Z,6.16
2023-04-08T19:56:34.175Z,6.13
2023-04-08T19:59:38.144Z,6.03
2023-04-08T20:02:41.052Z,6.01
2023-04-08T20:05:46.923Z,5.97
2023-04-08T20:08:52.060Z,6.07
2023-04-08T20:12:03.867Z,6.05
2023-04-08T20:15:11.364Z,6.04
2023-04-08T20:18:19.769Z,6.03
2023-04-08T20:21:22.998Z,6.09
2023-04-08T20:24:26.348Z,6.07
2023-04-08T20:27:29.015Z,6.07
2023-04-08T20:30:32.178Z,6.07
2023-04-08T20:33:35.302Z,6.08
2023-04-08T20:36:38.663Z,6.11
2023-04-08T20:39:41.738Z,6.11
2023-04-08T20:42:44.871Z,6.17
2023-04-08T20:45:47.433Z,6.16
2023-04-08T20:51:53.736Z,6.12
2023-04-08T20:54:57.107Z,6.05
2023-04-08T20:58:05.540Z,6.06
2023-04-08T21:01:08.845Z,6.04
2023-04-08T21:04:11.431Z,6.10
2023-04-08T21:07:14.501Z,6.07
2023-04-08T21:10:17.645Z,6.05
2023-04-08T21:13:20.812Z,6.18
2023-04-08T21:16:23.419Z,6.13
2023-04-08T21:19:26.552Z,6.14
2023-04-08T21:22:29.562Z,6.15
2023-04-08T21:25:33.357Z,6.14
2023-04-08T21:28:36.195Z,6.13
2023-04-08T21:31:41.208Z,6.19
2023-04-08T21:34:43.854Z,6.16
2023-04-08T21:37:47.013Z,6.16
2023-04-08T21:40:49.557Z,6.26
2023-04-08T21:43:53.703Z,6.26
2023-04-08T21:46:56.441Z,6.20
2023-04-08T21:50:00.063Z,6.12
2023-04-08T21:53:02.884Z,6.15
2023-04-08T21:56:07.986Z,6.14
2023-04-08T21:59:10.937Z,6.16
2023-04-08T22:02:14.477Z,6.12
2023-04-08T22:05:17.495Z,6.20
2023-04-08T22:08:20.983Z,6.11
2023-04-08T22:11:24.073Z,6.11
2023-04-08T22:14:26.932Z,6.07
2023-04-08T22:17:29.958Z,6.16
2023-04-08T22:20:33.048Z,6.15
2023-04-08T22:23:35.876Z,6.10
2023-04-08T22:26:38.669Z,6.04
2023-04-08T22:29:41.922Z,6.01
2023-04-08T22:32:44.834Z,6.04
2023-04-08T22:35:47.898Z,6.03
2023-04-08T22:38:51.148Z,5.98
2023-04-08T22:41:54.066Z,6.03
2023-04-08T22:44:57.054Z,5.99
2023-04-08T22:48:00.005Z,5.95
2023-04-08T22:51:02.963Z,5.96
2023-04-08T22:54:05.828Z,5.94
2023-04-08T22:57:08.637Z,5.94
2023-04-08T23:00:12.314Z,5.97
2023-04-08T23:03:15.682Z,5.93
2023-04-08T23:06:18.910Z,6.00
2023-04-08T23:09:23.732Z,6.10
2023-04-08T23:12:26.610Z,6.06
2023-04-08T23:15:29.611Z,5.99
2023-04-08T23:18:32.550Z,5.93
2023-04-08T23:21:35.371Z,6.01
2023-04-08T23:24:38.272Z,6.00
2023-04-08T23:27:41.156Z,5.96
2023-04-08T23:30:44.277Z,5.90
2023-04-08T23:33:47.138Z,5.96
2023-04-08T23:36:50.004Z,5.99
2023-04-08T23:39:52.838Z,6.00
2023-04-08T23:42:55.671Z,5.96
2023-04-08T23:45:58.680Z,5.89
2023-04-08T23:49:01.496Z,5.88
2023-04-08T23:52:04.654Z,5.96
2023-04-08T23:55:07.756Z,6.02
2023-04-08T23:58:10.790Z,5.96
